Thunder radar more information blitzortung!


avis per Snow/Ice more information rain snow radar


Visita la nostra xarxa de llocs de meteo:

Template documentation
and downloads

And another site



Snow/Ice From: 26-02-2018 12:00 Until: 27-02-2018 05:59 warning for: Snow/Ice Level: Yellow info button

Pagina Historial Weather Underground text

Diari Resum February 26, 2018 Unitats:  Tant    Imperial   Mètric
« Previous Dia
SegĂźent Dia »
Diari Setmana Mensual Anual Personalitzada
  Actual: Maxima: Minima: Media:
Temperatura: 4.1 °F /  -15.5 °C TemperatureC °F /  -17.8 °C 4.1 °F /  -15.5 °C 5.9 °F /  -14.5 °C
Punt de rosada: -2.3 °F /  -19.1 °C DewpointC °F /  -17.8 °C -3.2 °F /  -19.6 °C -1.8 °F /  -18.8 °C
Humitat: 63 % Humidity % 49 % 57 %
Wind Speed: 2.6 mph /  4.2 km/h WindSpeedKMH mph /  0 km/h - 2.3 mph /  3.7 km/h
RĂ fegues de vent: 2.6 mph /  4.2 km/h WindSpeedGustKMH mph /  0 km/h - -
Vent:SW - - ENE
Pression baro: 1008.0 in /  34130.9 hPa PressurehPa in /  0 hPa 1007.0 in /  34097 hPa -
Precipitacions: 0.0 in /  0 mm      
Historical Graphs
 
 
Dades de taula per February 26, 2018
Temps Temperatura Punt de rosada Pression baro Vent Wind Speed RĂ fegues de vent Humitat Rainfall Rate (Hourly)
TemperatureC °F /  -17.8 °C DewpointC °F /  -17.8 °C PressurehPa in /  0 hPa Calm     Humidity % HourlyPrecipMM in /  0 mm
00:02 6.8 °F /  -14 °C -3.2 °F /  -19.6 °C 1007.0 in /  34097 hPa ENE 3.7 mph /  6 km/h 3.7 mph /  6 km/h 49 % 0.0 in /  0 mm
00:07 6.7 °F /  -14.1 °C -3.0 °F /  -19.4 °C 1007.0 in /  34097 hPa NE 2.6 mph /  4.2 km/h 2.6 mph /  4.2 km/h 50 % 0.0 in /  0 mm
00:12 6.6 °F /  -14.1 °C -3.1 °F /  -19.5 °C 1007.0 in /  34097 hPa NNE 3.7 mph /  6 km/h 3.7 mph /  6 km/h 50 % 0.0 in /  0 mm
00:17 6.5 °F /  -14.2 °C -3.2 °F /  -19.6 °C 1007.0 in /  34097 hPa Calm     50 % 0.0 in /  0 mm
00:22 6.4 °F /  -14.2 °C -3.0 °F /  -19.4 °C 1007.0 in /  34097 hPa NNE 2.6 mph /  4.2 km/h   51 % 0.0 in /  0 mm
00:27 6.3 °F /  -14.3 °C -3.1 °F /  -19.5 °C 1007.0 in /  34097 hPa Calm     51 % 0.0 in /  0 mm
00:32 6.3 °F /  -14.3 °C -3.1 °F /  -19.5 °C 1007.0 in /  34097 hPa Calm     51 % 0.0 in /  0 mm
00:37 6.3 °F /  -14.3 °C -2.8 °F /  -19.3 °C 1007.0 in /  34097 hPa NE 3.7 mph /  6 km/h 3.7 mph /  6 km/h 52 % 0.0 in /  0 mm
00:42 6.2 °F /  -14.3 °C -2.9 °F /  -19.4 °C 1008.0 in /  34130.9 hPa NNE 3.7 mph /  6 km/h 3.7 mph /  6 km/h 52 % 0.0 in /  0 mm
00:47 6.2 °F /  -14.3 °C -2.7 °F /  -19.3 °C 1008.0 in /  34130.9 hPa NNE 3.7 mph /  6 km/h 3.7 mph /  6 km/h 53 % 0.0 in /  0 mm
00:52 6.2 °F /  -14.3 °C -2.7 °F /  -19.3 °C 1008.0 in /  34130.9 hPa Calm     53 % 0.0 in /  0 mm
00:57 6.1 °F /  -14.4 °C -2.8 °F /  -19.3 °C 1007.0 in /  34097 hPa Calm     53 % 0.0 in /  0 mm
01:02 6.2 °F /  -14.3 °C -2.4 °F /  -19.1 °C 1007.0 in /  34097 hPa NNE 4.2 mph /  6.8 km/h 4.2 mph /  6.8 km/h 54 % 0.0 in /  0 mm
01:07 6.3 °F /  -14.3 °C -2.3 °F /  -19.1 °C 1007.0 in /  34097 hPa NNE 5.6 mph /  9 km/h 5.6 mph /  9 km/h 54 % 0.0 in /  0 mm
01:12 6.3 °F /  -14.3 °C -2.1 °F /  -18.9 °C 1008.0 in /  34130.9 hPa NNE 3.7 mph /  6 km/h 3.7 mph /  6 km/h 55 % 0.0 in /  0 mm
01:17 6.3 °F /  -14.3 °C -2.1 °F /  -18.9 °C 1008.0 in /  34130.9 hPa NNE 3.7 mph /  6 km/h 3.7 mph /  6 km/h 55 % 0.0 in /  0 mm
01:22 6.4 °F /  -14.2 °C -1.8 °F /  -18.8 °C 1008.0 in /  34130.9 hPa NNE 5.6 mph /  9 km/h 5.6 mph /  9 km/h 56 % 0.0 in /  0 mm
01:27 6.5 °F /  -14.2 °C -1.7 °F /  -18.7 °C 1008.0 in /  34130.9 hPa NNE 5.6 mph /  9 km/h 5.6 mph /  9 km/h 56 % 0.0 in /  0 mm
01:32 6.6 °F /  -14.1 °C -1.3 °F /  -18.5 °C 1008.0 in /  34130.9 hPa NNE 4.2 mph /  6.8 km/h 4.2 mph /  6.8 km/h 57 % 0.0 in /  0 mm
01:37 6.6 °F /  -14.1 °C -1.3 °F /  -18.5 °C 1008.0 in /  34130.9 hPa NNE 3.9 mph /  6.3 km/h 3.9 mph /  6.3 km/h 57 % 0.0 in /  0 mm
01:42 6.7 °F /  -14.1 °C -1.2 °F /  -18.4 °C 1008.0 in /  34130.9 hPa ENE 5.6 mph /  9 km/h 5.6 mph /  9 km/h 57 % 0.0 in /  0 mm
01:47 6.7 °F /  -14.1 °C -1.0 °F /  -18.3 °C 1008.0 in /  34130.9 hPa NNE 3.7 mph /  6 km/h 3.7 mph /  6 km/h 58 % 0.0 in /  0 mm
01:52 6.7 °F /  -14.1 °C -1.0 °F /  -18.3 °C 1008.0 in /  34130.9 hPa NNE 2.3 mph /  3.7 km/h   58 % 0.0 in /  0 mm
01:57 6.6 °F /  -14.1 °C -1.1 °F /  -18.4 °C 1008.0 in /  34130.9 hPa NNE 1.9 mph /  3.1 km/h   58 % 0.0 in /  0 mm
02:02 6.6 °F /  -14.1 °C -1.1 °F /  -18.4 °C 1008.0 in /  34130.9 hPa North 2.6 mph /  4.2 km/h 2.6 mph /  4.2 km/h 58 % 0.0 in /  0 mm
02:07 6.6 °F /  -14.1 °C -1.1 °F /  -18.4 °C 1008.0 in /  34130.9 hPa NNE 5.6 mph /  9 km/h 5.6 mph /  9 km/h 58 % 0.0 in /  0 mm
02:12 6.6 °F /  -14.1 °C -0.8 °F /  -18.2 °C 1007.0 in /  34097 hPa NNE 5.6 mph /  9 km/h 5.6 mph /  9 km/h 59 % 0.0 in /  0 mm
02:17 6.5 °F /  -14.2 °C -0.9 °F /  -18.3 °C 1007.0 in /  34097 hPa NNE 7.4 mph /  11.9 km/h 7.4 mph /  11.9 km/h 59 % 0.0 in /  0 mm
02:22 6.5 °F /  -14.2 °C -0.9 °F /  -18.3 °C 1007.0 in /  34097 hPa NNW 1.9 mph /  3.1 km/h   59 % 0.0 in /  0 mm
02:27 6.4 °F /  -14.2 °C -0.8 °F /  -18.2 °C 1007.0 in /  34097 hPa NNE 3.2 mph /  5.1 km/h 3.2 mph /  5.1 km/h 60 % 0.0 in /  0 mm
02:32 6.4 °F /  -14.2 °C -0.8 °F /  -18.2 °C 1007.0 in /  34097 hPa NNE 3.7 mph /  6 km/h 3.7 mph /  6 km/h 60 % 0.0 in /  0 mm
02:37 6.3 °F /  -14.3 °C -0.9 °F /  -18.3 °C 1007.0 in /  34097 hPa Calm     60 % 0.0 in /  0 mm
02:42 6.3 °F /  -14.3 °C -0.9 °F /  -18.3 °C 1008.0 in /  34130.9 hPa Calm     60 % 0.0 in /  0 mm
02:52 6.0 °F /  -14.4 °C -1.2 °F /  -18.4 °C 1008.0 in /  34130.9 hPa South 1.9 mph /  3.1 km/h 1.9 mph /  3.1 km/h 60 % 0.0 in /  0 mm
02:57 5.9 °F /  -14.5 °C -1.3 °F /  -18.5 °C 1007.0 in /  34097 hPa South 1.9 mph /  3.1 km/h   60 % 0.0 in /  0 mm
03:02 5.8 °F /  -14.6 °C -1.4 °F /  -18.6 °C 1007.0 in /  34097 hPa Calm     60 % 0.0 in /  0 mm
03:07 5.8 °F /  -14.6 °C -1.2 °F /  -18.4 °C 1007.0 in /  34097 hPa Calm     61 % 0.0 in /  0 mm
03:12 5.7 °F /  -14.6 °C -1.2 °F /  -18.4 °C 1007.0 in /  34097 hPa ENE 1.9 mph /  3.1 km/h 1.9 mph /  3.1 km/h 61 % 0.0 in /  0 mm
03:17 5.6 °F /  -14.7 °C -1.3 °F /  -18.5 °C 1007.0 in /  34097 hPa Calm     61 % 0.0 in /  0 mm
03:22 5.5 °F /  -14.7 °C -1.4 °F /  -18.6 °C 1007.0 in /  34097 hPa Calm     61 % 0.0 in /  0 mm
03:27 5.4 °F /  -14.8 °C -1.5 °F /  -18.6 °C 1007.0 in /  34097 hPa Calm     61 % 0.0 in /  0 mm
03:32 5.3 °F /  -14.8 °C -1.6 °F /  -18.7 °C 1007.0 in /  34097 hPa Calm     61 % 0.0 in /  0 mm
03:37 5.2 °F /  -14.9 °C -1.7 °F /  -18.7 °C 1007.0 in /  34097 hPa Calm     61 % 0.0 in /  0 mm
03:42 5.2 °F /  -14.9 °C -1.5 °F /  -18.6 °C 1007.0 in /  34097 hPa Calm     62 % 0.0 in /  0 mm
03:47 5.1 °F /  -14.9 °C -1.6 °F /  -18.7 °C 1007.0 in /  34097 hPa Calm     62 % 0.0 in /  0 mm
03:52 5.0 °F /  -15 °C -1.7 °F /  -18.7 °C 1007.0 in /  34097 hPa Calm     62 % 0.0 in /  0 mm
03:57 4.9 °F /  -15.1 °C -1.8 °F /  -18.8 °C 1007.0 in /  34097 hPa Calm     62 % 0.0 in /  0 mm
04:02 4.8 °F /  -15.1 °C -1.7 °F /  -18.7 °C 1007.0 in /  34097 hPa ENE 2.3 mph /  3.7 km/h 2.3 mph /  3.7 km/h 63 % 0.0 in /  0 mm
04:07 4.5 °F /  -15.3 °C -1.9 °F /  -18.8 °C 1007.0 in /  34097 hPa ESE 1.9 mph /  3.1 km/h   63 % 0.0 in /  0 mm
04:12 4.4 °F /  -15.3 °C -2.1 °F /  -18.9 °C 1008.0 in /  34130.9 hPa South 2.6 mph /  4.2 km/h 2.6 mph /  4.2 km/h 63 % 0.0 in /  0 mm
04:17 4.2 °F /  -15.4 °C -2.4 °F /  -19.1 °C 1008.0 in /  34130.9 hPa SW 3.7 mph /  6 km/h 3.7 mph /  6 km/h 62 % 0.0 in /  0 mm
04:22 4.1 °F /  -15.5 °C -2.3 °F /  -19.1 °C 1008.0 in /  34130.9 hPa SW 2.6 mph /  4.2 km/h 2.6 mph /  4.2 km/h 63 % 0.0 in /  0 mm
Meteo Sesrovires
Elogis d' Weather Underground - 2.75 mb

Guio original per  Jim McMurry - jmcmurry@mwt.net Adaptat per a la plantilla per  Wim van der Kuil - Leuven-Template.eu

Trobareu la nostra informacio del temps tambe a:

Weather Underground

AWEKAS